Impacts TAF Board INFO
FOR SITUATIONAL AWARENESS. NOT TO BE USED FOR FLIGHT PLANNING PURPOSES.
IDs:

KMEM - Memphis Intl, TN, US

Issued at 1132 UTC 18 Nov 2017
Updated at 1213 UTC 18 Nov 2017
Potential Impact None Slight Moderate High
Time1154Z 18/13Z 18/14Z 18/15Z 18/16Z 18/17Z 18/18Z 18/19Z 18/20Z 18/21Z 18/22Z 18/23Z 19/00Z 19/01Z>>
Type OBS PRVL PRVL PRVL PRVL PRVL PRVL PRVL
  [TEMP]  
PRVL
  [TEMP]  
PRVL PRVL PRVL PRVL PRVL
VIS 10 >6 >6 >6 >6 >6 >6 >6
  [2]  
>6
  [2]  
>6 >6 >6 >6 >6
CIG 23 24 24 24 24 24 20 20
  [9]  
20
  [9]  
35 35 35 35 --
Cover BKN OVC OVC OVC OVC OVC OVC OVC
  [BKN]  
OVC
  [BKN]  
BKN BKN BKN BKN FEW
FltCat MVFR MVFR MVFR MVFR MVFR MVFR MVFR MVFR
  [IFR]  
MVFR
  [IFR]  
VFR VFR VFR VFR VFR
WX -- VCSH VCSH VCSH VCSH VCSH VCSH VCSH
  [+TSRA BR]  
VCSH
  [+TSRA BR]  
VCSH VCSH VCSH VCSH --
WDir 200 190 190 190 190 190 210 210
[210]
210
[210]
290 290 290 290 330
WSpd 19 22 22 22 22 22 22 22
  [22]  
22
  [22]  
22 22 22 22 15
WGst 29 32 32 32 32 32 32 32
  [32]  
32
  [32]  
30 30 30 30 25

Raw TAF
KMEM 181132Z 1812/1918 19022G32KT P6SM VCSH BKN024 OVC045 WS020/21050KT
  FM181800 21022G32KT P6SM VCSH BKN020 OVC035
  TEMPO 1819/1821 2SM +TSRA BR BKN009CB
  FM182100 29022G30KT P6SM VCSH BKN035
  FM190100 33015G25KT P6SM FEW040
  FM190400 33008KT P6SM SKC


Raw METAR
KMEM 181154Z 20019G29KT 10SM BKN023 BKN029 BKN047 20/16 A2966 RMK AO2 PK WND 19031/1121 SLP040 T02000161 10211 20200 56025
KMEM 181054Z 20023G32KT 10SM BKN024 BKN029 OVC048 20/16 A2968 RMK AO2 PK WND 19032/1051 SLP046 T02000161
KMEM 180954Z 20018G27KT 10SM BKN026 OVC055 20/16 A2971 RMK AO2 PK WND 18033/0918 SLP056 T02000161
KMEM 180952Z 19019G27KT 10SM BKN026 OVC055 20/16 A2970 RMK AO2 PK WND 18033/0918

METAR Board
Radar Display
Forecast Discussion

FOR SITUATIONAL AWARENESS. NOT TO BE USED FOR FLIGHT PLANNING PURPOSES.